Latest Weather Observations for Wattamolla

IDN60901

Issued at 7:31 pm EDT Wednesday 25 November 2020 (issued every 10 minutes, with the page automatically refreshed every 10 minutes)

About weather observations | Map of Sydney area stations | Latest observations for Sydney area | Other Formats
Station Details ID: 066208 Name: WATTAMOLLA AWS Lat: -34.14 Lon: 151.12 Height: 44.0 m
Data from the previous 72 hours. | See also: Recent months at Wattamolla
Date/Time
EDT
Temp
°C
App
Temp
°C
Dew
Point
°C
Rel
Hum
%
Delta-T
°C
Wind Press
QNH
hPa
Press
MSL
hPa
Rain since
9am
mm
Dir  Spd
km/h
Gust
km/h
Spd
kts
Gust
kts
25/07:30pm - - - - - NNE 24 35 13 19 - - -
25/07:00pm - - - - - NNE 22 30 12 16 - - -
25/06:30pm - - - - - NNE 24 33 13 18 - - -
25/06:00pm - - - - - NE 24 35 13 19 - - -
25/05:30pm - - - - - NE 24 32 13 17 - - -
25/05:00pm - - - - - NE 22 33 12 18 - - -
25/04:30pm - - - - - NE 22 33 12 18 - - -
25/04:00pm - - - - - NE 20 30 11 16 - - -
25/03:30pm - - - - - ENE 20 30 11 16 - - -
25/03:00pm - - - - - ENE 19 26 10 14 - - -
25/02:30pm - - - - - ENE 19 24 10 13 - - -
25/02:00pm - - - - - ENE 15 20 8 11 - - -
25/01:30pm - - - - - E 11 15 6 8 - - -
25/01:00pm - - - - - SE 7 9 4 5 - - -
25/12:30pm - - - - - SSE 9 11 5 6 - - -
25/12:00pm - - - - - S 9 11 5 6 - - -
25/11:30am - - - - - SSE 11 13 6 7 - - -
25/11:00am - - - - - SSE 7 9 4 5 - - -
25/10:30am - - - - - SSE 11 13 6 7 - - -
25/10:00am - - - - - SSE 9 13 5 7 - - -
25/09:30am - - - - - SE 13 15 7 8 - - -
25/09:00am - - - - - SSE 13 15 7 8 - - -
25/08:30am - - - - - SSW 4 11 2 6 - - -
25/08:00am - - - - - SW 7 9 4 5 - - -
25/07:30am - - - - - W 6 7 3 4 - - -
25/07:00am - - - - - WNW 7 11 4 6 - - -
25/06:30am - - - - - W 9 13 5 7 - - -
25/06:00am - - - - - WNW 13 15 7 8 - - -
25/05:30am - - - - - W 11 15 6 8 - - -
25/05:00am - - - - - SSW 9 13 5 7 - - -
25/04:30am - - - - - NNE 6 7 3 4 - - -
25/04:00am - - - - - S 15 19 8 10 - - -
25/03:30am - - - - - SSE 13 17 7 9 - - -
25/03:00am - - - - - SSE 11 13 6 7 - - -
25/02:30am - - - - - SSE 13 15 7 8 - - -
25/02:00am - - - - - SSE 15 20 8 11 - - -
25/01:30am - - - - - SSE 17 26 9 14 - - -
25/01:00am - - - - - SSE 15 19 8 10 - - -
25/12:30am - - - - - SSE 15 19 8 10 - - -
25/12:00am - - - - - S 15 19 8 10 - - -
 
Date/Time
EDT
Temp
°C
App
Temp
°C
Dew
Point
°C
Rel
Hum
%
Delta-T
°C
Wind Press
QNH
hPa
Press
MSL
hPa
Rain since
9am
mm
Dir  Spd
km/h
Gust
km/h
Spd
kts
Gust
kts
24/11:30pm - - - - - SSE 19 26 10 14 - - -
24/11:00pm - - - - - SSE 22 30 12 16 - - -
24/10:30pm - - - - - SSE 19 28 10 15 - - -
24/10:00pm - - - - - SSE 26 35 14 19 - - -
24/09:30pm - - - - - SSE 24 32 13 17 - - -
24/09:00pm - - - - - SSE 22 32 12 17 - - -
24/08:30pm - - - - - SSE 24 32 13 17 - - -
24/08:00pm - - - - - SSE 24 32 13 17 - - -
24/07:30pm - - - - - SSE 24 33 13 18 - - -
24/07:00pm - - - - - SSE 22 30 12 16 - - -
24/06:30pm - - - - - SSE 24 32 13 17 - - -
24/06:00pm - - - - - SSE 26 33 14 18 - - -
24/05:30pm - - - - - SSE 26 33 14 18 - - -
24/05:00pm - - - - - SSE 30 37 16 20 - - -
24/04:30pm - - - - - SSE 35 41 19 22 - - -
24/04:00pm - - - - - SSE 33 41 18 22 - - -
24/03:30pm - - - - - SSE 35 46 19 25 - - -
24/03:00pm - - - - - SSE 41 52 22 28 - - -
24/02:30pm - - - - - SSE 37 48 20 26 - - -
24/02:00pm - - - - - SSE 37 48 20 26 - - -
24/01:30pm - - - - - SSE 39 48 21 26 - - -
24/01:00pm - - - - - SSE 43 52 23 28 - - -
24/12:30pm - - - - - SSE 41 50 22 27 - - -
24/12:00pm - - - - - SSE 41 48 22 26 - - -
24/10:30am - - - - - S 44 52 24 28 - - -
24/10:00am - - - - - S 44 50 24 27 - - -
24/09:30am - - - - - S 48 56 26 30 - - -
24/09:00am - - - - - SSE 43 54 23 29 - - -
24/08:30am - - - - - SSE 46 56 25 30 - - -
24/08:00am - - - - - SSE 46 56 25 30 - - -
24/07:30am - - - - - S 46 56 25 30 - - -
24/07:00am - - - - - S 43 50 23 27 - - -
24/06:30am - - - - - SSE 46 56 25 30 - - -
24/06:00am - - - - - S 44 56 24 30 - - -
24/05:30am - - - - - S 43 50 23 27 - - -
24/05:00am - - - - - S 39 46 21 25 - - -
24/04:30am - - - - - S 41 48 22 26 - - -
24/04:00am - - - - - S 37 43 20 23 - - -
24/03:30am - - - - - S 37 43 20 23 - - -
24/03:00am - - - - - S 39 48 21 26 - - -
24/02:30am - - - - - S 39 48 21 26 - - -
24/02:00am - - - - - S 32 44 17 24 - - -
24/01:30am - - - - - S 33 44 18 24 - - -
24/01:00am - - - - - S 24 33 13 18 - - -
24/12:30am - - - - - S 15 24 8 13 - - -
24/12:00am - - - - - S 13 24 7 13 - - -
 
Date/Time
EDT
Temp
°C
App
Temp
°C
Dew
Point
°C
Rel
Hum
%
Delta-T
°C
Wind Press
QNH
hPa
Press
MSL
hPa
Rain since
9am
mm
Dir  Spd
km/h
Gust
km/h
Spd
kts
Gust
kts
23/11:30pm - - - - - SSE 24 35 13 19 - - -
23/11:00pm - - - - - SSE 30 41 16 22 - - -
23/10:30pm - - - - - S 39 48 21 26 - - -
23/10:00pm - - - - - S 39 50 21 27 - - -
23/09:30pm - - - - - S 43 50 23 27 - - -
23/09:00pm - - - - - S 30 39 16 21 - - -
23/08:30pm - - - - - S 26 39 14 21 - - -
23/08:00pm - - - - - S 20 28 11 15 - - -
23/07:30pm - - - - - S 20 30 11 16 - - -
23/07:00pm - - - - - S 37 44 20 24 - - -
23/06:39pm - - - - - S 28 54 15 29 - - -
23/06:30pm - - - - - S 22 35 12 19 - - -
23/06:00pm - - - - - WNW 32 48 17 26 - - -
23/05:30pm - - - - - WNW 32 46 17 25 - - -
23/05:28pm - - - - - WNW 32 46 17 25 - - -
23/05:00pm - - - - - WNW 20 33 11 18 - - -
23/04:30pm - - - - - S 20 35 11 19 - - -
23/04:00pm - - - - - NW 13 17 7 9 - - -
23/03:30pm - - - - - NNW 9 13 5 7 - - -
23/03:00pm - - - - - NW 11 17 6 9 - - -
23/02:30pm - - - - - WNW 13 20 7 11 - - -
23/02:00pm - - - - - NNW 24 39 13 21 - - -
23/01:30pm - - - - - NW 30 48 16 26 - - -
23/01:01pm - - - - - NNW 28 46 15 25 - - -
23/01:00pm - - - - - NNW 26 46 14 25 - - -
23/12:30pm - - - - - NNW 20 32 11 17 - - -
23/12:00pm - - - - - NW 13 17 7 9 - - -
23/11:30am - - - - - WNW 2 9 1 5 - - -
23/11:00am - - - - - W 9 17 5 9 - - -
23/10:30am - - - - - NW 19 28 10 15 - - -
23/10:00am - - - - - NW 20 33 11 18 - - -
23/09:30am - - - - - NW 19 32 10 17 - - -
23/09:00am - - - - - NNW 11 15 6 8 - - -
23/08:30am - - - - - NW 9 13 5 7 - - -
23/08:00am - - - - - NW 17 19 9 10 - - -
23/07:30am - - - - - NW 13 17 7 9 - - -
23/07:00am - - - - - NW 6 7 3 4 - - -
23/06:30am - - - - - WSW 4 11 2 6 - - -
23/06:00am - - - - - S 9 15 5 8 - - -
23/05:30am - - - - - S 15 20 8 11 - - -
23/05:00am - - - - - S 13 20 7 11 - - -
23/04:30am - - - - - S 19 30 10 16 - - -
23/04:00am - - - - - SW 24 35 13 19 - - -
23/03:30am - - - - - WNW 11 13 6 7 - - -
23/03:00am - - - - - NW 9 13 5 7 - - -
23/02:30am - - - - - WNW 9 13 5 7 - - -
23/02:00am - - - - - W 11 13 6 7 - - -
23/01:30am - - - - - SW 11 17 6 9 - - -
23/01:00am - - - - - NW 15 19 8 10 - - -
23/12:30am - - - - - NW 9 15 5 8 - - -
23/12:00am - - - - - CALM 0 0 0 0 - - -
 
Date/Time
EDT
Temp
°C
App
Temp
°C
Dew
Point
°C
Rel
Hum
%
Delta-T
°C
Wind Press
QNH
hPa
Press
MSL
hPa
Rain since
9am
mm
Dir  Spd
km/h
Gust
km/h
Spd
kts
Gust
kts
22/11:30pm - - - - - N 11 17 6 9 - - -
22/11:00pm - - - - - SSE 6 9 3 5 - - -
22/10:30pm - - - - - NW 9 17 5 9 - - -
22/10:00pm - - - - - NNW 11 17 6 9 - - -
22/09:30pm - - - - - NNW 15 19 8 10 - - -
22/09:00pm - - - - - NNW 15 17 8 9 - - -
22/08:30pm - - - - - NNW 13 19 7 10 - - -
22/08:00pm - - - - - NNW 11 13 6 7 - - -

Latest Capital City Observations: Canberra | Sydney | Melbourne | Brisbane | Adelaide | Perth | Hobart | Darwin

Other formats

Comma delimited format used in spreadsheet applications
http://www.bom.gov.au/fwo/IDN60901/IDN60901.95752.axf

JavaScript Object Notation format (JSON) in row-major order
http://www.bom.gov.au/fwo/IDN60901/IDN60901.95752.json

Data quality

Most of these data are generated automatically and are frequently updated. Quality checks on data are not normally performed. It is possible for incorrect values to appear. Refer to information at About Latest Weather Observations and please check the disclaimer before using these data.